Time;durP1;ratioP1;P1;durP2;ratioP2;P2;SDS_P1;SDS_P2;PMS_P1;PMS_P2;Temp;Humidity;BMP_temperature;BMP_pressure;BME280_temperature;BME280_humidity;BME280_pressure;Samples;Min_cycle;Max_cycle;Signal;HPM_P1;HPM_P2
2021/05/29 00:01:18;;;;;;;7.70;5.60;;;;;;;8.86;98.79;101492.38;5035113;28;20144;-66
2021/05/29 00:03:45;;;;;;;9.05;6.20;;;;;;;8.94;97.32;101485.06;5051742;28;20094;-65
2021/05/29 00:06:12;;;;;;;9.27;5.47;;;;;;;8.92;97.42;101486.03;5036226;28;20084;-66
2021/05/29 00:08:40;;;;;;;9.35;5.20;;;;;;;8.93;96.95;101488.59;5019979;28;20048;-66
2021/05/29 00:11:07;;;;;;;7.32;4.60;;;;;;;8.95;96.51;101493.78;5051598;28;20076;-65
2021/05/29 00:13:35;;;;;;;9.05;5.25;;;;;;;8.91;97.54;101484.31;5040941;28;20083;-65
2021/05/29 00:16:02;;;;;;;6.72;4.82;;;;;;;8.85;96.89;101485.41;5052471;28;20052;-66
2021/05/29 00:18:29;;;;;;;11.02;4.65;;;;;;;8.86;97.94;101490.59;5017332;28;20603;-65
2021/05/29 00:20:56;;;;;;;7.88;5.15;;;;;;;8.89;97.52;101494.88;5056635;28;20124;-65
2021/05/29 00:23:24;;;;;;;10.65;5.25;;;;;;;8.83;97.56;101485.47;5041687;28;20140;-65
2021/05/29 00:25:51;;;;;;;5.72;4.68;;;;;;;8.86;97.68;101487.97;5046720;28;20051;-66
2021/05/29 00:28:18;;;;;;;7.78;4.30;;;;;;;8.98;96.91;101485.81;5016970;28;20144;-66
2021/05/29 00:30:46;;;;;;;11.38;5.43;;;;;;;8.90;97.46;101482.59;5038105;28;20056;-65
2021/05/29 00:33:13;;;;;;;10.38;5.43;;;;;;;8.77;97.77;101480.44;5029791;28;20053;-65
2021/05/29 00:35:41;;;;;;;11.65;4.72;;;;;;;8.61;98.82;101484.56;5034083;28;20104;-65
2021/05/29 00:38:08;;;;;;;11.63;5.78;;;;;;;8.59;99.87;101484.59;5048026;28;20140;-65
2021/05/29 00:40:36;;;;;;;14.65;5.72;;;;;;;8.62;100.00;101479.25;5053530;28;20139;-66
2021/05/29 00:43:04;;;;;;;6.97;5.32;;;;;;;8.62;99.44;101486.28;5012061;28;20128;-66
2021/05/29 00:45:33;;;;;;;8.32;5.10;;;;;;;8.69;99.39;101482.53;5046841;28;20219;-66
2021/05/29 00:48:01;;;;;;;8.38;5.30;;;;;;;8.64;99.38;101479.19;5034007;28;20124;-66
2021/05/29 00:50:31;;;;;;;9.93;6.63;;;;;;;8.62;99.06;101479.25;5031873;28;20168;-66
2021/05/29 00:52:59;;;;;;;10.75;6.25;;;;;;;8.53;99.29;101479.59;5045581;28;20542;-65
2021/05/29 00:55:26;;;;;;;9.38;5.70;;;;;;;8.55;99.22;101485.63;5027550;28;20065;-66
2021/05/29 00:57:54;;;;;;;9.68;6.10;;;;;;;8.42;100.00;101488.75;5014708;28;20496;-67
2021/05/29 01:00:23;;;;;;;11.70;5.88;;;;;;;8.46;100.00;101490.34;5051665;28;20485;-67
2021/05/29 01:02:51;;;;;;;10.43;6.38;;;;;;;8.49;100.00;101478.00;5037633;28;20041;-65
2021/05/29 01:05:19;;;;;;;13.70;5.85;;;;;;;8.43;100.00;101474.75;5056975;28;20056;-65
2021/05/29 01:07:51;;;;;;;11.07;5.95;;;;;;;8.51;100.00;101476.19;5029657;28;20045;-66
2021/05/29 01:10:21;;;;;;;11.98;6.43;;;;;;;8.26;100.00;101486.66;5052501;28;20376;-65
2021/05/29 01:12:48;;;;;;;9.05;5.97;;;;;;;8.28;100.00;101482.19;5050544;28;20080;-64
2021/05/29 01:15:18;;;;;;;10.73;6.97;;;;;;;8.24;100.00;101479.75;5042379;28;20057;-66
2021/05/29 01:17:45;;;;;;;10.38;6.63;;;;;;;8.43;100.00;101485.25;5050223;28;20079;-66
2021/05/29 01:20:12;;;;;;;13.45;6.53;;;;;;;8.39;100.00;101487.13;5038401;28;20049;-66
2021/05/29 01:22:46;;;;;;;14.07;7.00;;;;;;;8.44;100.00;101487.81;5019678;28;20522;-66
2021/05/29 01:25:22;;;;;;;9.18;6.65;;;;;;;8.32;100.00;101481.19;5047320;28;20487;-65
2021/05/29 01:27:55;;;;;;;9.25;5.85;;;;;;;8.43;100.00;101483.47;5037818;28;20512;-65
2021/05/29 01:30:22;;;;;;;12.60;7.40;;;;;;;8.26;100.00;101491.91;5052511;28;20084;-66
2021/05/29 01:32:50;;;;;;;13.13;6.88;;;;;;;8.26;100.00;101483.19;5043391;28;20053;-66
2021/05/29 01:35:17;;;;;;;12.32;7.18;;;;;;;8.25;100.00;101486.72;5045005;28;20131;-65
2021/05/29 01:37:45;;;;;;;11.93;6.82;;;;;;;8.21;100.00;101490.38;5023752;28;20479;-66
2021/05/29 01:40:12;;;;;;;15.50;8.02;;;;;;;8.16;100.00;101492.28;5049427;28;20083;-67
2021/05/29 01:42:40;;;;;;;11.23;7.22;;;;;;;8.08;100.00;101488.16;5054426;28;20056;-66
2021/05/29 01:45:08;;;;;;;17.77;7.75;;;;;;;8.08;100.00;101492.56;5043677;28;20136;-66
2021/05/29 01:47:41;;;;;;;13.60;7.72;;;;;;;8.08;100.00;101492.56;5047934;28;20140;-66
2021/05/29 01:50:10;;;;;;;12.65;7.50;;;;;;;8.09;100.00;101484.63;5039383;28;20045;-66
2021/05/29 01:52:51;;;;;;;11.38;7.35;;;;;;;8.20;100.00;101489.50;5028465;28;20060;-66
2021/05/29 01:55:20;;;;;;;13.25;8.75;;;;;;;8.13;100.00;101486.22;5053944;28;20059;-64
2021/05/29 01:57:47;;;;;;;14.93;8.35;;;;;;;8.11;100.00;101485.44;5050580;28;20517;-66
2021/05/29 02:00:15;;;;;;;18.25;8.35;;;;;;;7.93;100.00;101491.31;5041446;28;20182;-67
2021/05/29 02:02:43;;;;;;;12.90;7.50;;;;;;;7.87;100.00;101492.38;5036118;28;20052;-65
2021/05/29 02:05:23;;;;;;;16.70;8.73;;;;;;;7.87;100.00;101486.25;5041829;28;20094;-65
2021/05/29 02:07:51;;;;;;;13.65;8.18;;;;;;;7.79;100.00;101489.16;5048421;28;20063;-66
2021/05/29 02:10:24;;;;;;;13.02;7.45;;;;;;;7.90;100.00;101488.78;5036510;28;20128;-65
2021/05/29 02:12:53;;;;;;;18.40;8.75;;;;;;;7.77;100.00;101487.50;5040272;28;20073;-65
2021/05/29 02:15:23;;;;;;;13.85;8.43;;;;;;;7.93;100.00;101493.09;5033643;28;20103;-66
2021/05/29 02:17:52;;;;;;;15.25;8.48;;;;;;;7.83;100.00;101484.66;5049546;28;20136;-67
2021/05/29 02:20:49;;;;;;;16.90;8.13;;;;;;;7.69;100.00;101492.97;5049375;28;20144;-66
2021/05/29 02:23:19;;;;;;;17.83;7.97;;;;;;;7.76;100.00;101494.50;5054594;28;20049;-66
2021/05/29 02:25:52;;;;;;;16.05;7.70;;;;;;;7.74;100.00;101492.81;5007077;28;20045;-65
2021/05/29 02:28:20;;;;;;;17.45;8.88;;;;;;;7.58;100.00;101490.72;5045348;28;20065;-67
2021/05/29 02:30:47;;;;;;;17.90;8.80;;;;;;;7.66;100.00;101492.25;5065611;28;20052;-66
2021/05/29 02:33:15;;;;;;;15.45;8.45;;;;;;;7.55;100.00;101496.06;5050053;28;20057;-66
2021/05/29 02:35:42;;;;;;;19.60;9.07;;;;;;;7.53;100.00;101504.88;5054143;28;20041;-66
2021/05/29 02:38:10;;;;;;;19.50;9.93;;;;;;;7.50;100.00;101504.97;5057119;28;20117;-66
2021/05/29 02:40:37;;;;;;;16.95;9.18;;;;;;;7.66;100.00;101502.72;5042657;28;20223;-65
2021/05/29 02:43:04;;;;;;;16.52;7.95;;;;;;;7.75;100.00;101508.53;5026536;28;20128;-66
2021/05/29 02:45:32;;;;;;;14.02;8.50;;;;;;;7.78;100.00;101505.78;5057621;28;20045;-66
2021/05/29 02:47:59;;;;;;;19.90;9.35;;;;;;;7.84;100.00;101509.97;5046931;28;20469;-65
2021/05/29 02:50:27;;;;;;;16.88;8.52;;;;;;;7.86;100.00;101510.78;5036619;28;20460;-66
2021/05/29 02:52:54;;;;;;;15.98;8.80;;;;;;;7.99;100.00;101505.97;5036988;28;20057;-65
2021/05/29 02:55:24;;;;;;;15.50;9.10;;;;;;;8.03;100.00;101511.06;5054121;28;20045;-67
2021/05/29 02:57:53;;;;;;;17.60;10.02;;;;;;;7.99;100.00;101505.97;5040031;28;20260;-66
2021/05/29 03:00:21;;;;;;;17.25;9.27;;;;;;;8.00;100.00;101498.06;5047024;28;20520;-66
2021/05/29 03:02:49;;;;;;;18.17;9.55;;;;;;;8.01;100.00;101507.63;5027699;28;20077;-66
2021/05/29 03:05:16;;;;;;;23.75;9.98;;;;;;;7.99;100.00;101500.72;5038985;28;20081;-66
2021/05/29 03:07:45;;;;;;;17.55;9.18;;;;;;;7.99;100.00;101503.34;5014366;28;20800;-66
2021/05/29 03:10:14;;;;;;;21.63;9.73;;;;;;;8.01;100.00;101512.88;5026140;28;20072;-65
2021/05/29 03:12:41;;;;;;;16.27;9.80;;;;;;;7.93;100.00;101514.06;5051412;28;20072;-65
2021/05/29 03:15:21;;;;;;;19.85;9.70;;;;;;;7.89;100.00;101513.31;5042344;28;20120;-67
2021/05/29 03:17:48;;;;;;;17.38;9.77;;;;;;;7.85;100.00;101517.78;5033130;28;20101;-67
2021/05/29 03:20:18;;;;;;;15.63;9.45;;;;;;;7.80;100.00;101524.09;5039166;28;20060;-66
2021/05/29 03:22:45;;;;;;;15.95;10.35;;;;;;;7.86;100.00;101522.13;5033949;28;20130;-65
2021/05/29 03:25:14;;;;;;;21.73;11.32;;;;;;;7.71;100.00;101522.63;5050120;28;20128;-66
2021/05/29 03:27:42;;;;;;;23.75;11.73;;;;;;;7.78;100.00;101518.03;5041486;28;20123;-64
2021/05/29 03:30:11;;;;;;;17.55;11.20;;;;;;;7.80;100.00;101514.47;5042843;28;20152;-66
2021/05/29 03:32:39;;;;;;;21.67;10.90;;;;;;;7.87;100.00;101512.47;5049049;28;20056;-65
2021/05/29 03:35:08;;;;;;;19.67;11.57;;;;;;;7.77;100.00;101514.56;5048193;28;20086;-65
2021/05/29 03:37:36;;;;;;;19.75;10.93;;;;;;;7.69;100.00;101513.94;5042952;28;20056;-66
2021/05/29 03:40:05;;;;;;;16.77;11.55;;;;;;;7.76;100.00;101515.47;5029592;28;20060;-65
2021/05/29 03:42:33;;;;;;;20.23;10.90;;;;;;;7.72;100.00;101523.47;5041042;28;20060;-65
2021/05/29 03:45:00;;;;;;;20.00;10.82;;;;;;;7.82;100.00;101514.41;5056165;28;20059;-65
2021/05/29 03:47:31;;;;;;;20.95;11.38;;;;;;;7.99;100.00;101517.31;5023605;28;20056;-65
2021/05/29 03:49:58;;;;;;;23.23;12.00;;;;;;;8.11;100.00;101522.16;5037498;28;20584;-66
2021/05/29 03:52:26;;;;;;;18.77;10.57;;;;;;;8.09;100.00;101523.97;5026053;28;20106;-65
2021/05/29 03:54:53;;;;;;;21.80;11.77;;;;;;;8.13;100.00;101517.69;5053527;28;20150;-65
2021/05/29 03:57:20;;;;;;;25.08;11.80;;;;;;;8.35;100.00;101514.34;5049770;28;20169;-65
2021/05/29 03:59:47;;;;;;;22.27;12.60;;;;;;;8.35;100.00;101522.22;5050429;28;20135;-65
2021/05/29 04:02:15;;;;;;;27.27;12.00;;;;;;;8.28;100.00;101521.53;5048717;28;20140;-65
2021/05/29 04:04:42;;;;;;;21.15;11.82;;;;;;;8.34;100.00;101523.97;5051105;28;20707;-65
2021/05/29 04:07:09;;;;;;;19.48;11.07;;;;;;;8.18;100.00;101529.81;5048527;28;20057;-67
2021/05/29 04:09:36;;;;;;;19.25;11.85;;;;;;;8.05;100.00;101529.34;5047356;28;20084;-67
2021/05/29 04:12:04;;;;;;;20.65;11.25;;;;;;;8.24;100.00;101533.09;5030656;28;20063;-65
2021/05/29 04:14:34;;;;;;;22.10;11.80;;;;;;;8.51;100.00;101527.78;5037925;28;20141;-66
2021/05/29 04:17:01;;;;;;;18.83;11.65;;;;;;;8.39;100.00;101529.09;5036017;28;20044;-66
2021/05/29 04:19:29;;;;;;;22.08;10.75;;;;;;;8.40;100.00;101528.19;5051481;28;20158;-66
2021/05/29 04:21:56;;;;;;;21.20;11.73;;;;;;;8.61;100.00;101523.94;5027089;28;20040;-66
2021/05/29 04:24:24;;;;;;;19.02;10.98;;;;;;;8.72;100.00;101534.03;5023871;28;20045;-65
2021/05/29 04:26:51;;;;;;;18.83;10.27;;;;;;;8.84;100.00;101538.84;5035092;28;20438;-66
2021/05/29 04:29:18;;;;;;;16.75;10.70;;;;;;;8.79;100.00;101535.53;5049107;28;20075;-66
2021/05/29 04:31:45;;;;;;;16.50;10.80;;;;;;;8.61;100.00;101537.91;5041758;28;20534;-65
2021/05/29 04:34:13;;;;;;;18.67;11.25;;;;;;;8.82;100.00;101540.66;5052820;28;20076;-65
2021/05/29 04:36:40;;;;;;;25.27;10.90;;;;;;;8.75;100.00;101539.19;5057755;28;20083;-65
2021/05/29 04:39:07;;;;;;;20.60;10.60;;;;;;;8.52;100.00;101543.50;5047186;28;20064;-66
2021/05/29 04:41:34;;;;;;;19.30;10.98;;;;;;;8.66;100.00;101544.78;5023290;28;20072;-67
2021/05/29 04:44:02;;;;;;;18.63;9.65;;;;;;;8.88;100.00;101541.28;5038281;28;20518;-65
2021/05/29 04:46:29;;;;;;;21.98;12.65;;;;;;;8.87;100.00;101547.47;5032955;28;20550;-66
2021/05/29 04:48:56;;;;;;;21.50;11.38;;;;;;;8.82;100.00;101552.00;5051463;28;20084;-65
2021/05/29 04:51:23;;;;;;;21.33;11.93;;;;;;;8.79;100.00;101548.66;5047478;28;20148;-66
2021/05/29 04:53:50;;;;;;;21.02;11.07;;;;;;;8.92;100.00;101546.44;5047531;28;20049;-66
2021/05/29 04:56:18;;;;;;;18.50;12.27;;;;;;;9.17;99.48;101552.47;5048146;28;20052;-66
2021/05/29 04:58:45;;;;;;;19.67;11.93;;;;;;;9.18;98.27;101548.06;5048648;28;20166;-66
2021/05/29 05:01:12;;;;;;;16.33;11.10;;;;;;;9.06;98.48;101555.50;5046444;28;20079;-66
2021/05/29 05:03:40;;;;;;;18.02;10.98;;;;;;;8.95;99.23;101560.28;5022854;28;20079;-65
2021/05/29 05:06:07;;;;;;;15.70;10.88;;;;;;;9.00;98.91;101570.63;5021414;28;20139;-65
2021/05/29 05:08:35;;;;;;;18.67;12.15;;;;;;;8.83;100.00;101573.91;5038196;28;20098;-64
2021/05/29 05:11:02;;;;;;;23.75;11.45;;;;;;;8.93;99.25;101577.88;5047945;28;20623;-68
2021/05/29 05:13:29;;;;;;;17.58;10.02;;;;;;;8.97;99.20;101576.00;5051149;28;20152;-65
2021/05/29 05:15:56;;;;;;;18.73;12.20;;;;;;;8.59;100.00;101583.50;5037353;28;20045;-66
2021/05/29 05:18:24;;;;;;;20.85;11.80;;;;;;;8.72;100.00;101587.38;5054718;28;20054;-65
2021/05/29 05:20:51;;;;;;;17.85;10.80;;;;;;;8.73;100.00;101589.09;5062327;28;20072;-67
2021/05/29 05:23:22;;;;;;;17.20;11.30;;;;;;;8.69;100.00;101581.38;5056536;28;20069;-66
2021/05/29 05:25:51;;;;;;;14.32;10.48;;;;;;;8.64;100.00;101592.06;5045716;28;20041;-66
2021/05/29 05:28:19;;;;;;;21.60;11.35;;;;;;;8.40;100.00;101593.78;5034121;28;20117;-65
2021/05/29 05:30:47;;;;;;;20.17;10.80;;;;;;;8.77;100.00;101597.72;5043845;28;20060;-65
2021/05/29 05:33:15;;;;;;;21.48;12.25;;;;;;;8.68;100.00;101590.19;5037900;28;20057;-66
2021/05/29 05:35:43;;;;;;;13.27;10.68;;;;;;;8.57;100.00;101587.94;5029669;28;20464;-66
2021/05/29 05:38:10;;;;;;;15.70;10.93;;;;;;;8.67;100.00;101601.59;5044748;28;20053;-66
2021/05/29 05:40:38;;;;;;;18.70;11.55;;;;;;;8.62;100.00;101597.38;5039125;28;20049;-65
2021/05/29 05:43:05;;;;;;;18.25;10.63;;;;;;;8.75;100.00;101597.78;5033810;28;20148;-67
2021/05/29 05:45:32;;;;;;;28.15;11.60;;;;;;;8.84;100.00;101597.47;5052417;28;20056;-66
2021/05/29 05:48:00;;;;;;;27.45;11.77;;;;;;;9.09;99.50;101601.81;5038307;28;20448;-65
2021/05/29 05:50:27;;;;;;;15.70;10.55;;;;;;;8.96;98.64;101605.78;5053184;28;20088;-66
2021/05/29 05:52:54;;;;;;;14.55;10.45;;;;;;;9.19;98.05;101608.44;5036271;28;20117;-66
2021/05/29 05:55:23;;;;;;;18.33;10.32;;;;;;;9.39;97.04;101605.06;5038116;28;20052;-65
2021/05/29 05:57:50;;;;;;;21.40;11.90;;;;;;;9.55;95.96;101594.81;5040701;28;20053;-66
2021/05/29 06:00:21;;;;;;;36.05;11.98;;;;;;;9.61;95.86;101591.94;5036609;28;20064;-65
2021/05/29 06:02:49;;;;;;;26.30;11.45;;;;;;;9.92;94.73;101598.59;5043220;28;20053;-65
2021/05/29 06:05:17;;;;;;;19.38;10.95;;;;;;;10.11;92.56;101600.41;5046231;28;20080;-65
2021/05/29 06:07:44;;;;;;;16.63;9.75;;;;;;;10.03;92.04;101597.22;5049319;28;20111;-65
2021/05/29 06:10:12;;;;;;;16.75;11.40;;;;;;;10.03;92.00;101599.00;5054606;28;20285;-66
2021/05/29 06:12:43;;;;;;;17.73;10.40;;;;;;;9.92;92.78;101607.34;5043856;28;20867;-66
2021/05/29 06:18:11;;;;;;;17.65;10.57;;;;;;;10.09;91.48;101615.41;5031751;28;20136;-66
2021/05/29 06:20:43;;;;;;;19.30;11.25;;;;;;;9.73;93.89;101614.28;5060278;28;20338;-66
2021/05/29 06:23:12;;;;;;;20.17;11.57;;;;;;;10.16;92.09;101621.25;5055096;28;20048;-67
2021/05/29 06:25:40;;;;;;;14.38;10.55;;;;;;;10.51;90.57;101625.09;5056105;28;20083;-66
2021/05/29 06:28:07;;;;;;;19.63;11.80;;;;;;;10.76;89.00;101624.91;5017993;28;20091;-65
2021/05/29 06:30:35;;;;;;;20.55;11.68;;;;;;;10.82;88.47;101627.25;5033002;28;20411;-65
2021/05/29 06:33:04;;;;;;;15.95;10.25;;;;;;;10.98;87.38;101632.69;5038711;28;20282;-65
2021/05/29 06:35:31;;;;;;;16.23;11.07;;;;;;;10.84;88.03;101635.94;5048638;28;20122;-66
2021/05/29 06:38:00;;;;;;;15.40;10.57;;;;;;;11.08;86.62;101630.53;5050874;28;20053;-64
2021/05/29 06:40:27;;;;;;;17.90;10.75;;;;;;;11.10;86.47;101631.28;5050578;28;20111;-65
2021/05/29 06:42:54;;;;;;;22.38;11.00;;;;;;;10.86;86.98;101638.50;5048386;28;20507;-65
2021/05/29 06:45:21;;;;;;;17.25;10.45;;;;;;;10.85;86.64;101634.16;5052900;28;20120;-64
2021/05/29 06:47:49;;;;;;;24.70;11.88;;;;;;;10.76;87.73;101629.28;5072896;28;20075;-66
2021/05/29 06:50:16;;;;;;;21.70;13.20;;;;;;;10.89;86.97;101630.47;5035503;28;20096;-67
2021/05/29 06:52:47;;;;;;;22.15;12.90;;;;;;;11.15;86.00;101627.53;5054212;28;20072;-67
2021/05/29 07:00:46;;;;;;;;;;;;;;;11.70;82.52;101631.16;5047524;28;20055;-67
2021/05/29 07:03:13;;;;;;;17.60;11.15;;;;;;;11.51;82.87;101626.75;5035838;28;19924;-65
2021/05/29 07:05:41;;;;;;;16.50;11.68;;;;;;;11.73;82.62;101634.50;5052762;28;20091;-67
2021/05/29 07:08:08;;;;;;;21.55;11.50;;;;;;;12.06;81.15;101633.84;5039814;28;20518;-65
2021/05/29 07:10:35;;;;;;;20.13;11.75;;;;;;;12.18;78.65;101642.94;5040794;28;20152;-66
2021/05/29 07:13:03;;;;;;;21.20;12.20;;;;;;;11.97;79.69;101632.50;5056698;28;20077;-66
2021/05/29 07:15:38;;;;;;;23.77;10.52;;;;;;;12.31;78.59;101639.63;5056354;28;20056;-67
2021/05/29 07:18:09;;;;;;;23.88;10.63;;;;;;;12.63;77.39;101630.06;5053553;28;20152;-67
2021/05/29 07:20:37;;;;;;;19.38;10.75;;;;;;;13.04;76.09;101634.97;5045212;28;20328;-66
2021/05/29 07:23:06;;;;;;;17.35;9.73;;;;;;;13.54;73.44;101633.19;5032905;28;20522;-68
2021/05/29 07:25:34;;;;;;;20.45;10.20;;;;;;;13.40;73.18;101629.53;5026356;28;20049;-66
2021/05/29 07:28:03;;;;;;;19.65;10.05;;;;;;;13.51;72.40;101634.25;5019137;28;20402;-68
2021/05/29 07:30:30;;;;;;;18.70;8.73;;;;;;;13.76;71.13;101627.56;5040953;28;20143;-66
2021/05/29 07:32:57;;;;;;;15.50;9.32;;;;;;;13.87;70.55;101630.47;5053566;28;20057;-68
2021/05/29 07:35:27;;;;;;;14.15;9.30;;;;;;;14.39;68.53;101641.53;5031264;28;20065;-67
2021/05/29 07:37:54;;;;;;;16.88;9.15;;;;;;;14.41;67.66;101642.31;5033108;28;20390;-66
2021/05/29 07:40:22;;;;;;;15.30;8.52;;;;;;;16.41;61.49;101634.16;5056234;28;20112;-68
2021/05/29 07:42:49;;;;;;;14.43;6.88;;;;;;;16.98;58.70;101630.31;5035835;28;20045;-66
2021/05/29 07:45:17;;;;;;;12.57;7.43;;;;;;;18.32;54.24;101626.81;5052405;28;20132;-68
2021/05/29 07:47:44;;;;;;;10.00;6.53;;;;;;;21.64;45.37;101620.78;5048511;28;20535;-67
2021/05/29 07:50:12;;;;;;;9.43;6.60;;;;;;;22.07;43.40;101628.44;5027158;28;20139;-67
2021/05/29 07:52:39;;;;;;;12.82;6.72;;;;;;;20.88;44.82;101634.56;5036504;28;20056;-67
2021/05/29 07:55:07;;;;;;;9.52;5.97;;;;;;;20.59;46.27;101623.69;5051913;28;20080;-67
2021/05/29 07:57:34;;;;;;;12.27;6.15;;;;;;;20.42;46.16;101627.75;5009985;28;20053;-66
2021/05/29 08:00:05;;;;;;;14.52;6.45;;;;;;;21.22;43.91;101619.06;5048835;28;20044;-67
2021/05/29 08:02:33;;;;;;;13.68;6.00;;;;;;;23.17;39.98;101615.41;5032633;28;20136;-67
2021/05/29 08:05:00;;;;;;;11.10;5.70;;;;;;;21.93;42.86;101619.00;5049652;28;20052;-67
2021/05/29 08:07:27;;;;;;;8.85;5.85;;;;;;;21.55;43.59;101618.91;5049829;28;20049;-67
2021/05/29 08:09:56;;;;;;;9.90;5.85;;;;;;;19.82;46.97;101631.91;5051275;28;20119;-67
2021/05/29 08:12:23;;;;;;;11.98;6.40;;;;;;;19.28;47.81;101634.50;5053025;28;20511;-67
2021/05/29 08:14:51;;;;;;;13.05;6.72;;;;;;;19.69;48.50;101632.06;5040450;28;20470;-67
2021/05/29 08:17:18;;;;;;;10.70;5.65;;;;;;;19.87;47.62;101628.84;5040262;28;20511;-66
2021/05/29 08:19:45;;;;;;;10.43;5.55;;;;;;;20.78;44.76;101627.47;5033782;28;20048;-67
2021/05/29 08:22:12;;;;;;;12.43;5.90;;;;;;;20.79;44.68;101627.31;5058614;28;20599;-66
2021/05/29 08:24:39;;;;;;;7.78;5.50;;;;;;;20.39;45.07;101630.69;5039488;28;20052;-66
2021/05/29 08:27:07;;;;;;;8.25;5.30;;;;;;;19.68;47.42;101634.84;5046629;28;20049;-66
2021/05/29 08:29:34;;;;;;;15.13;5.45;;;;;;;18.95;49.31;101637.03;5043234;28;20053;-67
2021/05/29 08:32:01;;;;;;;13.07;5.78;;;;;;;18.55;50.37;101631.25;5049910;28;20128;-67
2021/05/29 08:34:28;;;;;;;10.00;5.50;;;;;;;18.48;51.43;101632.69;5028671;28;20110;-67
2021/05/29 08:36:56;;;;;;;12.00;4.75;;;;;;;18.79;50.38;101636.53;5046742;28;20052;-65
2021/05/29 08:39:23;;;;;;;10.50;4.63;;;;;;;18.77;51.03;101645.63;5050423;28;20059;-70
2021/05/29 08:41:50;;;;;;;11.57;4.78;;;;;;;18.89;50.30;101636.66;5037896;28;20167;-66
2021/05/29 08:44:18;;;;;;;9.23;5.35;;;;;;;18.33;51.17;101631.19;5036428;28;20423;-66
2021/05/29 08:46:45;;;;;;;6.70;4.75;;;;;;;18.43;51.83;101634.84;5046434;28;20601;-66
2021/05/29 08:49:13;;;;;;;13.73;5.55;;;;;;;18.26;52.25;101635.28;5040229;28;20132;-66
2021/05/29 08:51:40;;;;;;;11.63;5.35;;;;;;;17.72;52.79;101637.38;5046375;28;20419;-67
2021/05/29 08:54:07;;;;;;;12.20;5.07;;;;;;;16.92;55.29;101628.06;5058958;28;20221;-67
2021/05/29 08:56:34;;;;;;;8.50;5.20;;;;;;;17.97;53.50;101624.97;5063768;28;20075;-67
2021/05/29 08:59:02;;;;;;;6.95;4.72;;;;;;;17.76;53.88;101624.75;5021221;28;20052;-65
2021/05/29 09:01:30;;;;;;;12.65;5.70;;;;;;;17.10;54.21;101629.44;5036096;28;20585;-67
2021/05/29 09:03:59;;;;;;;9.80;4.80;;;;;;;17.29;54.49;101629.00;5046829;28;20055;-66
2021/05/29 09:06:26;;;;;;;12.90;5.45;;;;;;;17.70;53.87;101627.84;5053842;28;20158;-66
2021/05/29 09:09:05;;;;;;;9.77;5.28;;;;;;;17.44;53.70;101621.72;5049273;28;20067;-66
2021/05/29 09:11:42;;;;;;;8.40;4.40;;;;;;;17.62;52.17;101624.88;5037161;28;20464;-67
2021/05/29 09:14:22;;;;;;;9.95;4.70;;;;;;;17.20;53.14;101627.84;5035585;28;20164;-66
2021/05/29 09:17:05;;;;;;;8.25;4.72;;;;;;;17.88;52.65;101631.00;5043287;28;20455;-65
2021/05/29 09:19:55;;;;;;;13.25;5.30;;;;;;;17.46;52.10;101639.28;5028256;28;20142;-68
2021/05/29 09:22:28;;;;;;;8.40;4.85;;;;;;;17.48;52.97;101639.19;5037747;28;20069;-67
2021/05/29 09:25:17;;;;;;;7.32;4.35;;;;;;;18.37;50.21;101637.97;5010302;28;20534;-67
2021/05/29 09:28:04;;;;;;;9.38;4.60;;;;;;;18.46;49.17;101637.25;5042810;28;20653;-67
2021/05/29 09:30:35;;;;;;;7.18;4.25;;;;;;;18.25;49.92;101644.25;5062862;28;20147;-67
2021/05/29 09:33:28;;;;;;;7.07;4.05;;;;;;;18.21;50.86;101641.78;5045456;28;20136;-67
2021/05/29 09:36:05;;;;;;;8.70;4.00;;;;;;;18.60;48.98;101637.09;5049039;28;20506;-65
2021/05/29 09:38:40;;;;;;;10.00;4.32;;;;;;;19.23;47.45;101638.41;5039178;28;20140;-68
2021/05/29 09:41:21;;;;;;;7.25;4.25;;;;;;;18.23;49.53;101629.19;5052300;28;20048;-67
2021/05/29 09:44:04;;;;;;;11.35;4.88;;;;;;;18.85;48.27;101632.53;5052573;28;20049;-66
2021/05/29 09:47:00;;;;;;;9.48;4.43;;;;;;;18.17;49.71;101637.66;5049803;28;20061;-67
2021/05/29 09:49:48;;;;;;;10.77;4.60;;;;;;;18.67;49.12;101634.78;5033502;28;20479;-67
2021/05/29 09:52:23;;;;;;;6.93;4.40;;;;;;;19.12;47.43;101627.69;5050409;28;20546;-66
2021/05/29 09:54:51;;;;;;;;;;;;;;;19.09;46.89;101625.28;5049916;28;20128;-66
2021/05/29 09:57:18;;;;;;;6.65;3.95;;;;;;;19.01;47.08;101629.53;5033305;28;19974;-66
2021/05/29 09:59:59;;;;;;;9.73;4.53;;;;;;;18.92;48.80;101628.44;5029952;28;20049;-66
2021/05/29 10:02:27;;;;;;;11.55;5.45;;;;;;;19.34;48.00;101639.34;5047851;28;20118;-67
2021/05/29 10:04:56;;;;;;;12.68;4.93;;;;;;;19.59;46.62;101636.41;5047604;28;20071;-67
2021/05/29 10:07:25;;;;;;;12.27;5.80;;;;;;;18.34;50.85;101638.22;5049090;28;20478;-66
2021/05/29 10:09:52;;;;;;;9.68;5.30;;;;;;;18.13;52.24;101630.00;5019384;28;20044;-67
2021/05/29 10:12:20;;;;;;;7.57;4.60;;;;;;;17.74;51.48;101634.63;5048119;28;20575;-67
2021/05/29 10:14:47;;;;;;;7.75;4.78;;;;;;;18.09;51.13;101640.03;5050184;28;20296;-67
2021/05/29 10:17:15;;;;;;;10.50;4.75;;;;;;;18.06;51.36;101634.09;5049867;28;20565;-66
2021/05/29 10:19:44;;;;;;;11.57;5.15;;;;;;;18.12;51.52;101633.66;5013574;28;20045;-67
2021/05/29 10:22:14;;;;;;;9.13;4.38;;;;;;;19.13;48.17;101637.41;5047439;28;20137;-68
2021/05/29 10:24:44;;;;;;;8.20;4.63;;;;;;;19.16;47.36;101629.16;5029544;28;20568;-66
2021/05/29 10:27:19;;;;;;;11.35;4.93;;;;;;;19.04;48.67;101635.47;5046909;28;20460;-67
2021/05/29 10:29:47;;;;;;;9.77;5.55;;;;;;;17.84;50.48;101632.19;5021845;28;20140;-67
2021/05/29 10:32:16;;;;;;;12.32;5.07;;;;;;;16.94;53.09;101636.81;5051825;28;20099;-66
2021/05/29 10:35:05;;;;;;;8.32;5.38;;;;;;;17.26;53.52;101628.38;5031030;28;20060;-67
2021/05/29 10:37:37;;;;;;;6.20;4.40;;;;;;;17.74;52.20;101633.78;5038301;28;20508;-67
2021/05/29 10:40:14;;;;;;;8.20;4.70;;;;;;;18.14;49.96;101629.88;5027646;28;20128;-66
2021/05/29 10:42:42;;;;;;;9.80;4.90;;;;;;;18.92;49.28;101625.78;5036047;28;20491;-67
2021/05/29 10:45:13;;;;;;;10.32;4.75;;;;;;;17.76;52.00;101626.56;5029638;28;20067;-66
2021/05/29 10:48:03;;;;;;;13.10;5.32;;;;;;;17.70;52.98;101625.16;5046659;28;20167;-65
2021/05/29 10:50:55;;;;;;;11.43;5.90;;;;;;;17.70;52.41;101627.84;5045008;28;20147;-66
2021/05/29 10:53:41;;;;;;;7.15;4.63;;;;;;;17.47;52.46;101632.13;5030988;28;20191;-66
2021/05/29 10:56:21;;;;;;;9.50;4.95;;;;;;;17.59;52.21;101625.94;5046097;28;20053;-68
2021/05/29 10:59:11;;;;;;;12.65;5.25;;;;;;;17.29;53.14;101630.78;5046570;28;20037;-66
2021/05/29 11:01:42;;;;;;;9.52;4.80;;;;;;;17.04;52.38;101615.72;5047471;28;20053;-67
2021/05/29 11:04:30;;;;;;;12.38;5.80;;;;;;;17.48;53.27;101617.88;5032966;28;20056;-67
2021/05/29 11:07:21;;;;;;;33.80;6.95;;;;;;;17.79;53.85;101615.69;5045063;28;20627;-66
2021/05/29 11:09:52;;;;;;;10.60;6.07;;;;;;;17.43;53.24;101617.38;5024425;28;20124;-67
2021/05/29 11:12:19;;;;;;;10.82;6.03;;;;;;;17.61;52.77;101621.38;5042872;28;20168;-65
2021/05/29 11:14:57;;;;;;;10.00;6.07;;;;;;;17.93;51.50;101627.03;5021956;28;20131;-65
2021/05/29 11:17:27;;;;;;;7.78;5.75;;;;;;;17.51;52.60;101622.13;5053888;28;20059;-66
2021/05/29 11:20:13;;;;;;;8.75;5.93;;;;;;;17.58;53.31;101621.56;5043857;28;20037;-65
2021/05/29 11:22:49;;;;;;;11.55;6.00;;;;;;;18.00;52.17;101630.06;5018120;28;20041;-66
2021/05/29 11:25:21;;;;;;;10.73;6.05;;;;;;;17.51;53.36;101625.63;5013161;28;20048;-66
2021/05/29 11:27:49;;;;;;;9.20;5.88;;;;;;;17.59;52.80;101628.59;5042762;28;20424;-67
2021/05/29 11:30:26;;;;;;;8.20;5.05;;;;;;;18.20;51.90;101624.09;5038018;28;20495;-65
2021/05/29 11:35:49;;;;;;;10.95;6.50;;;;;;;18.13;50.50;101620.19;5051149;28;20049;-67
2021/05/29 11:38:21;;;;;;;8.85;5.95;;;;;;;17.75;52.04;101615.06;5029742;28;20070;-67
2021/05/29 11:41:15;;;;;;;8.43;5.75;;;;;;;17.93;51.93;101624.34;5014876;28;1012554;-67